sensor_id;sensor_type;location;lat;lon;timestamp;P1;durP1;ratioP1;P2;durP2;ratioP2
4053;SDS011;2042;47.956;9.222;2024-03-06T00:01:41;2.70;;;2.50;;
4053;SDS011;2042;47.956;9.222;2024-03-06T00:04:06;3.93;;;3.10;;
4053;SDS011;2042;47.956;9.222;2024-03-06T00:06:33;2.93;;;2.57;;
4053;SDS011;2042;47.956;9.222;2024-03-06T00:08:59;3.23;;;2.67;;
4053;SDS011;2042;47.956;9.222;2024-03-06T00:11:27;6.80;;;3.00;;
4053;SDS011;2042;47.956;9.222;2024-03-06T00:13:53;2.80;;;2.57;;
4053;SDS011;2042;47.956;9.222;2024-03-06T00:16:19;2.50;;;2.30;;
4053;SDS011;2042;47.956;9.222;2024-03-06T00:18:45;2.80;;;2.50;;
4053;SDS011;2042;47.956;9.222;2024-03-06T00:21:11;3.20;;;2.90;;
4053;SDS011;2042;47.956;9.222;2024-03-06T00:23:37;2.50;;;2.30;;
4053;SDS011;2042;47.956;9.222;2024-03-06T00:26:03;3.90;;;3.00;;
4053;SDS011;2042;47.956;9.222;2024-03-06T00:28:29;3.20;;;2.73;;
4053;SDS011;2042;47.956;9.222;2024-03-06T00:30:55;2.40;;;2.20;;
4053;SDS011;2042;47.956;9.222;2024-03-06T00:33:22;2.47;;;2.27;;
4053;SDS011;2042;47.956;9.222;2024-03-06T00:35:48;2.60;;;2.40;;
4053;SDS011;2042;47.956;9.222;2024-03-06T00:38:14;3.40;;;2.60;;
4053;SDS011;2042;47.956;9.222;2024-03-06T00:40:40;3.37;;;2.40;;
4053;SDS011;2042;47.956;9.222;2024-03-06T00:43:05;4.03;;;2.80;;
4053;SDS011;2042;47.956;9.222;2024-03-06T00:45:31;4.27;;;3.60;;
4053;SDS011;2042;47.956;9.222;2024-03-06T00:47:57;3.47;;;3.10;;
4053;SDS011;2042;47.956;9.222;2024-03-06T00:50:22;3.03;;;2.73;;
4053;SDS011;2042;47.956;9.222;2024-03-06T00:52:48;2.77;;;2.40;;
4053;SDS011;2042;47.956;9.222;2024-03-06T00:55:14;3.50;;;2.93;;
4053;SDS011;2042;47.956;9.222;2024-03-06T00:57:40;3.20;;;2.63;;
4053;SDS011;2042;47.956;9.222;2024-03-06T01:00:05;3.97;;;2.87;;
4053;SDS011;2042;47.956;9.222;2024-03-06T01:02:36;3.10;;;2.80;;
4053;SDS011;2042;47.956;9.222;2024-03-06T01:05:05;2.70;;;2.50;;
4053;SDS011;2042;47.956;9.222;2024-03-06T01:07:32;7.90;;;3.40;;
4053;SDS011;2042;47.956;9.222;2024-03-06T01:09:58;4.30;;;3.33;;
4053;SDS011;2042;47.956;9.222;2024-03-06T01:12:24;3.13;;;2.70;;
4053;SDS011;2042;47.956;9.222;2024-03-06T01:14:50;4.23;;;2.87;;
4053;SDS011;2042;47.956;9.222;2024-03-06T01:17:16;3.00;;;2.73;;
4053;SDS011;2042;47.956;9.222;2024-03-06T01:19:41;7.67;;;3.67;;
4053;SDS011;2042;47.956;9.222;2024-03-06T01:22:10;3.90;;;2.93;;
4053;SDS011;2042;47.956;9.222;2024-03-06T01:24:38;5.03;;;3.03;;
4053;SDS011;2042;47.956;9.222;2024-03-06T01:27:04;3.73;;;2.57;;
4053;SDS011;2042;47.956;9.222;2024-03-06T01:29:29;3.00;;;2.70;;
4053;SDS011;2042;47.956;9.222;2024-03-06T01:31:55;3.00;;;2.47;;
4053;SDS011;2042;47.956;9.222;2024-03-06T01:34:21;3.87;;;2.40;;
4053;SDS011;2042;47.956;9.222;2024-03-06T01:36:47;2.77;;;2.40;;
4053;SDS011;2042;47.956;9.222;2024-03-06T01:39:13;4.20;;;2.90;;
4053;SDS011;2042;47.956;9.222;2024-03-06T01:41:49;3.33;;;2.77;;
4053;SDS011;2042;47.956;9.222;2024-03-06T01:44:16;2.37;;;2.03;;
4053;SDS011;2042;47.956;9.222;2024-03-06T01:46:43;3.40;;;2.93;;
4053;SDS011;2042;47.956;9.222;2024-03-06T01:49:09;3.97;;;2.73;;
4053;SDS011;2042;47.956;9.222;2024-03-06T01:51:37;2.23;;;1.90;;
4053;SDS011;2042;47.956;9.222;2024-03-06T01:54:03;2.83;;;2.10;;
4053;SDS011;2042;47.956;9.222;2024-03-06T01:56:35;3.60;;;3.30;;
4053;SDS011;2042;47.956;9.222;2024-03-06T01:59:04;4.30;;;2.30;;
4053;SDS011;2042;47.956;9.222;2024-03-06T02:01:31;2.03;;;1.83;;
4053;SDS011;2042;47.956;9.222;2024-03-06T02:03:57;3.13;;;2.23;;
4053;SDS011;2042;47.956;9.222;2024-03-06T02:06:24;2.03;;;1.70;;
4053;SDS011;2042;47.956;9.222;2024-03-06T02:08:50;2.00;;;1.73;;
4053;SDS011;2042;47.956;9.222;2024-03-06T02:11:16;3.30;;;2.10;;
4053;SDS011;2042;47.956;9.222;2024-03-06T02:13:42;1.67;;;1.57;;
4053;SDS011;2042;47.956;9.222;2024-03-06T02:16:11;2.17;;;1.87;;
4053;SDS011;2042;47.956;9.222;2024-03-06T02:18:37;2.17;;;1.90;;
4053;SDS011;2042;47.956;9.222;2024-03-06T02:21:03;3.20;;;2.40;;
4053;SDS011;2042;47.956;9.222;2024-03-06T02:23:30;4.10;;;1.77;;
4053;SDS011;2042;47.956;9.222;2024-03-06T02:25:56;3.63;;;2.23;;
4053;SDS011;2042;47.956;9.222;2024-03-06T02:28:21;1.93;;;1.70;;
4053;SDS011;2042;47.956;9.222;2024-03-06T02:30:50;2.30;;;1.87;;
4053;SDS011;2042;47.956;9.222;2024-03-06T02:33:17;3.97;;;2.30;;
4053;SDS011;2042;47.956;9.222;2024-03-06T02:35:43;2.10;;;1.90;;
4053;SDS011;2042;47.956;9.222;2024-03-06T02:38:11;5.60;;;2.30;;
4053;SDS011;2042;47.956;9.222;2024-03-06T02:40:36;2.30;;;2.00;;
4053;SDS011;2042;47.956;9.222;2024-03-06T02:43:02;4.03;;;1.83;;
4053;SDS011;2042;47.956;9.222;2024-03-06T02:45:27;1.90;;;1.80;;
4053;SDS011;2042;47.956;9.222;2024-03-06T02:47:53;3.20;;;2.10;;
4053;SDS011;2042;47.956;9.222;2024-03-06T02:50:19;2.17;;;1.97;;
4053;SDS011;2042;47.956;9.222;2024-03-06T02:52:46;3.03;;;2.73;;
4053;SDS011;2042;47.956;9.222;2024-03-06T02:55:11;2.47;;;2.23;;
4053;SDS011;2042;47.956;9.222;2024-03-06T02:57:37;3.27;;;2.47;;
4053;SDS011;2042;47.956;9.222;2024-03-06T03:00:03;3.07;;;2.77;;
4053;SDS011;2042;47.956;9.222;2024-03-06T03:02:29;4.13;;;2.33;;
4053;SDS011;2042;47.956;9.222;2024-03-06T03:04:54;3.30;;;2.37;;
4053;SDS011;2042;47.956;9.222;2024-03-06T03:07:20;2.07;;;1.83;;
4053;SDS011;2042;47.956;9.222;2024-03-06T03:09:46;4.23;;;2.40;;
4053;SDS011;2042;47.956;9.222;2024-03-06T03:12:12;2.30;;;2.10;;
4053;SDS011;2042;47.956;9.222;2024-03-06T03:14:39;2.97;;;2.03;;
4053;SDS011;2042;47.956;9.222;2024-03-06T03:17:05;2.33;;;2.13;;
4053;SDS011;2042;47.956;9.222;2024-03-06T03:19:31;2.40;;;1.70;;
4053;SDS011;2042;47.956;9.222;2024-03-06T03:21:57;3.07;;;2.40;;
4053;SDS011;2042;47.956;9.222;2024-03-06T03:24:23;2.77;;;2.57;;
4053;SDS011;2042;47.956;9.222;2024-03-06T03:26:51;2.50;;;2.07;;
4053;SDS011;2042;47.956;9.222;2024-03-06T03:29:17;3.37;;;2.13;;
4053;SDS011;2042;47.956;9.222;2024-03-06T03:31:43;2.80;;;2.60;;
4053;SDS011;2042;47.956;9.222;2024-03-06T03:34:08;2.37;;;2.17;;
4053;SDS011;2042;47.956;9.222;2024-03-06T03:36:39;3.67;;;1.93;;
4053;SDS011;2042;47.956;9.222;2024-03-06T03:39:11;2.73;;;2.20;;
4053;SDS011;2042;47.956;9.222;2024-03-06T03:41:46;2.10;;;1.90;;
4053;SDS011;2042;47.956;9.222;2024-03-06T03:44:13;2.20;;;2.10;;
4053;SDS011;2042;47.956;9.222;2024-03-06T03:46:39;3.10;;;2.23;;
4053;SDS011;2042;47.956;9.222;2024-03-06T03:49:04;2.40;;;1.90;;
4053;SDS011;2042;47.956;9.222;2024-03-06T03:51:30;3.10;;;2.53;;
4053;SDS011;2042;47.956;9.222;2024-03-06T03:53:56;2.63;;;2.03;;
4053;SDS011;2042;47.956;9.222;2024-03-06T03:56:21;2.60;;;2.20;;
4053;SDS011;2042;47.956;9.222;2024-03-06T03:58:48;2.33;;;2.10;;
4053;SDS011;2042;47.956;9.222;2024-03-06T04:01:14;2.50;;;2.30;;
4053;SDS011;2042;47.956;9.222;2024-03-06T04:03:40;3.33;;;1.77;;
4053;SDS011;2042;47.956;9.222;2024-03-06T04:06:07;2.80;;;2.27;;
4053;SDS011;2042;47.956;9.222;2024-03-06T04:08:33;3.20;;;2.70;;
4053;SDS011;2042;47.956;9.222;2024-03-06T04:10:59;2.47;;;2.27;;
4053;SDS011;2042;47.956;9.222;2024-03-06T04:13:25;2.53;;;2.33;;
4053;SDS011;2042;47.956;9.222;2024-03-06T04:15:51;2.33;;;2.13;;
4053;SDS011;2042;47.956;9.222;2024-03-06T04:18:16;3.00;;;2.70;;
4053;SDS011;2042;47.956;9.222;2024-03-06T04:20:42;6.53;;;2.40;;
4053;SDS011;2042;47.956;9.222;2024-03-06T04:23:08;2.90;;;2.37;;
4053;SDS011;2042;47.956;9.222;2024-03-06T04:25:33;2.10;;;1.90;;
4053;SDS011;2042;47.956;9.222;2024-03-06T04:27:59;2.60;;;2.37;;
4053;SDS011;2042;47.956;9.222;2024-03-06T04:30:24;2.70;;;1.77;;
4053;SDS011;2042;47.956;9.222;2024-03-06T04:32:50;3.43;;;1.97;;
4053;SDS011;2042;47.956;9.222;2024-03-06T04:35:16;2.47;;;2.07;;
4053;SDS011;2042;47.956;9.222;2024-03-06T04:37:42;1.87;;;1.77;;
4053;SDS011;2042;47.956;9.222;2024-03-06T04:40:08;1.80;;;1.60;;
4053;SDS011;2042;47.956;9.222;2024-03-06T04:42:35;3.30;;;2.00;;
4053;SDS011;2042;47.956;9.222;2024-03-06T04:45:01;2.93;;;1.90;;
4053;SDS011;2042;47.956;9.222;2024-03-06T04:47:28;1.20;;;1.10;;
4053;SDS011;2042;47.956;9.222;2024-03-06T04:49:54;2.20;;;1.83;;
4053;SDS011;2042;47.956;9.222;2024-03-06T04:52:19;4.53;;;1.90;;
4053;SDS011;2042;47.956;9.222;2024-03-06T04:54:45;2.80;;;1.97;;
4053;SDS011;2042;47.956;9.222;2024-03-06T04:57:11;3.13;;;2.03;;
4053;SDS011;2042;47.956;9.222;2024-03-06T04:59:36;5.73;;;1.67;;
4053;SDS011;2042;47.956;9.222;2024-03-06T05:02:02;2.07;;;1.77;;
4053;SDS011;2042;47.956;9.222;2024-03-06T05:04:28;1.83;;;1.60;;
4053;SDS011;2042;47.956;9.222;2024-03-06T05:06:54;2.30;;;2.10;;
4053;SDS011;2042;47.956;9.222;2024-03-06T05:09:20;3.80;;;2.10;;
4053;SDS011;2042;47.956;9.222;2024-03-06T05:11:47;2.10;;;1.90;;
4053;SDS011;2042;47.956;9.222;2024-03-06T05:14:15;3.43;;;1.87;;
4053;SDS011;2042;47.956;9.222;2024-03-06T05:16:41;2.63;;;1.97;;
4053;SDS011;2042;47.956;9.222;2024-03-06T05:19:07;2.93;;;1.57;;
4053;SDS011;2042;47.956;9.222;2024-03-06T05:21:32;2.10;;;1.60;;
4053;SDS011;2042;47.956;9.222;2024-03-06T05:24:00;2.73;;;2.10;;
4053;SDS011;2042;47.956;9.222;2024-03-06T05:26:25;1.90;;;1.73;;
4053;SDS011;2042;47.956;9.222;2024-03-06T05:28:51;3.13;;;2.00;;
4053;SDS011;2042;47.956;9.222;2024-03-06T05:31:17;2.20;;;2.00;;
4053;SDS011;2042;47.956;9.222;2024-03-06T05:33:44;2.60;;;2.20;;
4053;SDS011;2042;47.956;9.222;2024-03-06T05:36:11;2.57;;;2.03;;
4053;SDS011;2042;47.956;9.222;2024-03-06T05:38:40;2.20;;;1.77;;
4053;SDS011;2042;47.956;9.222;2024-03-06T05:41:06;4.90;;;2.43;;
4053;SDS011;2042;47.956;9.222;2024-03-06T05:43:32;3.00;;;2.13;;
4053;SDS011;2042;47.956;9.222;2024-03-06T05:45:57;3.07;;;2.40;;
4053;SDS011;2042;47.956;9.222;2024-03-06T05:48:23;5.40;;;2.70;;
4053;SDS011;2042;47.956;9.222;2024-03-06T05:50:49;5.70;;;1.97;;
4053;SDS011;2042;47.956;9.222;2024-03-06T05:53:15;2.97;;;2.03;;
4053;SDS011;2042;47.956;9.222;2024-03-06T05:55:40;2.70;;;1.73;;
4053;SDS011;2042;47.956;9.222;2024-03-06T05:58:06;3.70;;;2.43;;
4053;SDS011;2042;47.956;9.222;2024-03-06T06:00:31;3.57;;;2.47;;
4053;SDS011;2042;47.956;9.222;2024-03-06T06:02:58;2.57;;;1.97;;
4053;SDS011;2042;47.956;9.222;2024-03-06T06:05:24;3.60;;;2.57;;
4053;SDS011;2042;47.956;9.222;2024-03-06T06:07:50;2.50;;;2.30;;
4053;SDS011;2042;47.956;9.222;2024-03-06T06:10:16;4.70;;;2.90;;
4053;SDS011;2042;47.956;9.222;2024-03-06T06:12:42;7.50;;;2.87;;
4053;SDS011;2042;47.956;9.222;2024-03-06T06:15:07;4.03;;;2.70;;
4053;SDS011;2042;47.956;9.222;2024-03-06T06:17:33;3.97;;;2.80;;
4053;SDS011;2042;47.956;9.222;2024-03-06T06:19:59;5.33;;;3.30;;
4053;SDS011;2042;47.956;9.222;2024-03-06T06:22:28;5.10;;;4.17;;
4053;SDS011;2042;47.956;9.222;2024-03-06T06:24:54;5.93;;;3.40;;
4053;SDS011;2042;47.956;9.222;2024-03-06T06:27:20;3.80;;;3.10;;
4053;SDS011;2042;47.956;9.222;2024-03-06T06:29:46;4.00;;;3.03;;
4053;SDS011;2042;47.956;9.222;2024-03-06T06:32:12;6.30;;;3.87;;
4053;SDS011;2042;47.956;9.222;2024-03-06T06:34:37;4.80;;;4.10;;
4053;SDS011;2042;47.956;9.222;2024-03-06T06:37:03;3.73;;;3.30;;
4053;SDS011;2042;47.956;9.222;2024-03-06T06:39:29;4.40;;;3.80;;
4053;SDS011;2042;47.956;9.222;2024-03-06T06:41:55;4.67;;;3.93;;
4053;SDS011;2042;47.956;9.222;2024-03-06T06:44:20;4.90;;;4.40;;
4053;SDS011;2042;47.956;9.222;2024-03-06T06:46:46;7.77;;;4.90;;
4053;SDS011;2042;47.956;9.222;2024-03-06T06:49:11;7.87;;;4.80;;
4053;SDS011;2042;47.956;9.222;2024-03-06T06:51:37;6.33;;;3.97;;
4053;SDS011;2042;47.956;9.222;2024-03-06T06:54:03;10.40;;;6.10;;
4053;SDS011;2042;47.956;9.222;2024-03-06T06:56:29;4.40;;;4.00;;
4053;SDS011;2042;47.956;9.222;2024-03-06T06:58:56;7.30;;;3.80;;
4053;SDS011;2042;47.956;9.222;2024-03-06T07:01:21;5.40;;;4.13;;
4053;SDS011;2042;47.956;9.222;2024-03-06T07:03:47;6.07;;;4.27;;
4053;SDS011;2042;47.956;9.222;2024-03-06T07:06:13;10.90;;;7.83;;
4053;SDS011;2042;47.956;9.222;2024-03-06T07:08:38;6.00;;;4.73;;
4053;SDS011;2042;47.956;9.222;2024-03-06T07:11:04;7.87;;;4.37;;
4053;SDS011;2042;47.956;9.222;2024-03-06T07:13:30;4.97;;;3.53;;
4053;SDS011;2042;47.956;9.222;2024-03-06T07:15:56;5.83;;;4.33;;
4053;SDS011;2042;47.956;9.222;2024-03-06T07:18:21;6.70;;;5.13;;
4053;SDS011;2042;47.956;9.222;2024-03-06T07:20:47;7.10;;;4.10;;
4053;SDS011;2042;47.956;9.222;2024-03-06T07:23:13;7.83;;;5.33;;
4053;SDS011;2042;47.956;9.222;2024-03-06T07:25:39;5.97;;;4.67;;
4053;SDS011;2042;47.956;9.222;2024-03-06T07:28:04;6.20;;;3.83;;
4053;SDS011;2042;47.956;9.222;2024-03-06T07:30:30;7.70;;;4.83;;
4053;SDS011;2042;47.956;9.222;2024-03-06T07:32:56;7.90;;;5.30;;
4053;SDS011;2042;47.956;9.222;2024-03-06T07:35:22;11.83;;;5.90;;
4053;SDS011;2042;47.956;9.222;2024-03-06T07:37:48;5.90;;;4.93;;
4053;SDS011;2042;47.956;9.222;2024-03-06T07:40:14;6.40;;;4.93;;
4053;SDS011;2042;47.956;9.222;2024-03-06T07:42:41;6.80;;;5.17;;
4053;SDS011;2042;47.956;9.222;2024-03-06T07:45:07;8.50;;;5.27;;
4053;SDS011;2042;47.956;9.222;2024-03-06T07:47:34;8.97;;;5.93;;
4053;SDS011;2042;47.956;9.222;2024-03-06T07:50:00;7.17;;;5.33;;
4053;SDS011;2042;47.956;9.222;2024-03-06T07:52:25;7.60;;;5.40;;
4053;SDS011;2042;47.956;9.222;2024-03-06T07:54:51;5.50;;;4.90;;
4053;SDS011;2042;47.956;9.222;2024-03-06T07:57:16;4.17;;;3.70;;
4053;SDS011;2042;47.956;9.222;2024-03-06T07:59:43;5.77;;;4.67;;
4053;SDS011;2042;47.956;9.222;2024-03-06T08:02:08;4.93;;;4.33;;
4053;SDS011;2042;47.956;9.222;2024-03-06T08:04:35;6.47;;;4.10;;
4053;SDS011;2042;47.956;9.222;2024-03-06T08:07:01;5.10;;;4.50;;
4053;SDS011;2042;47.956;9.222;2024-03-06T08:09:26;4.60;;;4.20;;
4053;SDS011;2042;47.956;9.222;2024-03-06T08:11:53;5.73;;;5.00;;
4053;SDS011;2042;47.956;9.222;2024-03-06T08:14:19;5.87;;;4.40;;
4053;SDS011;2042;47.956;9.222;2024-03-06T08:16:45;7.10;;;3.63;;
4053;SDS011;2042;47.956;9.222;2024-03-06T08:19:11;6.77;;;4.50;;
4053;SDS011;2042;47.956;9.222;2024-03-06T08:21:36;6.80;;;4.43;;
4053;SDS011;2042;47.956;9.222;2024-03-06T08:24:02;4.63;;;4.10;;
4053;SDS011;2042;47.956;9.222;2024-03-06T08:26:28;5.03;;;4.17;;
4053;SDS011;2042;47.956;9.222;2024-03-06T08:28:54;4.40;;;3.73;;
4053;SDS011;2042;47.956;9.222;2024-03-06T08:31:19;5.43;;;3.53;;
4053;SDS011;2042;47.956;9.222;2024-03-06T08:33:46;5.20;;;3.77;;
4053;SDS011;2042;47.956;9.222;2024-03-06T08:36:12;4.20;;;3.80;;
4053;SDS011;2042;47.956;9.222;2024-03-06T08:38:39;4.80;;;3.40;;
4053;SDS011;2042;47.956;9.222;2024-03-06T08:41:06;4.13;;;3.60;;
4053;SDS011;2042;47.956;9.222;2024-03-06T08:43:31;3.40;;;3.10;;
4053;SDS011;2042;47.956;9.222;2024-03-06T08:45:57;7.55;;;5.30;;
4053;SDS011;2042;47.956;9.222;2024-03-06T08:48:23;7.87;;;4.17;;
4053;SDS011;2042;47.956;9.222;2024-03-06T08:50:49;2.97;;;2.70;;
4053;SDS011;2042;47.956;9.222;2024-03-06T08:53:16;5.93;;;4.17;;
4053;SDS011;2042;47.956;9.222;2024-03-06T08:55:41;5.43;;;3.33;;
4053;SDS011;2042;47.956;9.222;2024-03-06T08:58:07;2.83;;;2.57;;
4053;SDS011;2042;47.956;9.222;2024-03-06T09:00:34;4.70;;;3.73;;
4053;SDS011;2042;47.956;9.222;2024-03-06T09:02:59;3.80;;;3.10;;
4053;SDS011;2042;47.956;9.222;2024-03-06T09:05:25;5.03;;;3.10;;
4053;SDS011;2042;47.956;9.222;2024-03-06T09:07:51;3.80;;;3.47;;
4053;SDS011;2042;47.956;9.222;2024-03-06T09:10:17;3.57;;;3.20;;
4053;SDS011;2042;47.956;9.222;2024-03-06T09:12:44;3.87;;;3.50;;
4053;SDS011;2042;47.956;9.222;2024-03-06T09:15:10;4.60;;;3.00;;
4053;SDS011;2042;47.956;9.222;2024-03-06T09:17:37;3.50;;;3.13;;
4053;SDS011;2042;47.956;9.222;2024-03-06T09:20:03;6.53;;;3.43;;
4053;SDS011;2042;47.956;9.222;2024-03-06T09:22:35;4.03;;;3.20;;
4053;SDS011;2042;47.956;9.222;2024-03-06T09:25:01;3.20;;;2.90;;
4053;SDS011;2042;47.956;9.222;2024-03-06T09:27:27;4.43;;;3.47;;
4053;SDS011;2042;47.956;9.222;2024-03-06T09:29:53;3.97;;;3.63;;
4053;SDS011;2042;47.956;9.222;2024-03-06T09:32:18;3.07;;;2.73;;
4053;SDS011;2042;47.956;9.222;2024-03-06T09:34:44;3.87;;;3.57;;
4053;SDS011;2042;47.956;9.222;2024-03-06T09:37:10;4.87;;;3.37;;
4053;SDS011;2042;47.956;9.222;2024-03-06T09:39:36;3.83;;;2.90;;
4053;SDS011;2042;47.956;9.222;2024-03-06T09:42:02;5.33;;;2.93;;
4053;SDS011;2042;47.956;9.222;2024-03-06T09:44:28;3.50;;;3.00;;
4053;SDS011;2042;47.956;9.222;2024-03-06T09:46:54;3.60;;;2.60;;
4053;SDS011;2042;47.956;9.222;2024-03-06T09:49:22;3.00;;;2.63;;
4053;SDS011;2042;47.956;9.222;2024-03-06T09:51:48;3.43;;;2.13;;
4053;SDS011;2042;47.956;9.222;2024-03-06T09:54:15;3.83;;;2.97;;
4053;SDS011;2042;47.956;9.222;2024-03-06T09:56:46;3.00;;;2.00;;
4053;SDS011;2042;47.956;9.222;2024-03-06T09:59:13;4.03;;;2.33;;
4053;SDS011;2042;47.956;9.222;2024-03-06T10:01:40;2.90;;;2.60;;
4053;SDS011;2042;47.956;9.222;2024-03-06T10:04:24;3.33;;;2.70;;
4053;SDS011;2042;47.956;9.222;2024-03-06T10:06:58;2.30;;;2.10;;
4053;SDS011;2042;47.956;9.222;2024-03-06T10:09:25;2.63;;;2.40;;
4053;SDS011;2042;47.956;9.222;2024-03-06T10:11:51;4.27;;;2.20;;
4053;SDS011;2042;47.956;9.222;2024-03-06T10:14:23;2.50;;;1.90;;
4053;SDS011;2042;47.956;9.222;2024-03-06T10:16:52;2.77;;;2.20;;
4053;SDS011;2042;47.956;9.222;2024-03-06T10:19:19;2.30;;;2.00;;
4053;SDS011;2042;47.956;9.222;2024-03-06T10:21:48;2.20;;;2.00;;
4053;SDS011;2042;47.956;9.222;2024-03-06T10:26:49;1.67;;;1.53;;
4053;SDS011;2042;47.956;9.222;2024-03-06T10:29:17;2.83;;;2.53;;
4053;SDS011;2042;47.956;9.222;2024-03-06T10:31:56;3.40;;;3.20;;
4053;SDS011;2042;47.956;9.222;2024-03-06T10:34:28;1.40;;;1.30;;
4053;SDS011;2042;47.956;9.222;2024-03-06T10:36:58;2.80;;;2.43;;
4053;SDS011;2042;47.956;9.222;2024-03-06T10:39:24;2.50;;;2.00;;
4053;SDS011;2042;47.956;9.222;2024-03-06T10:41:57;2.10;;;2.00;;
4053;SDS011;2042;47.956;9.222;2024-03-06T10:44:26;2.87;;;1.80;;
4053;SDS011;2042;47.956;9.222;2024-03-06T10:46:58;1.73;;;1.60;;
4053;SDS011;2042;47.956;9.222;2024-03-06T10:49:28;1.93;;;1.33;;
4053;SDS011;2042;47.956;9.222;2024-03-06T10:52:00;3.00;;;1.73;;
4053;SDS011;2042;47.956;9.222;2024-03-06T10:54:34;1.77;;;1.67;;
4053;SDS011;2042;47.956;9.222;2024-03-06T10:57:01;1.47;;;1.37;;
4053;SDS011;2042;47.956;9.222;2024-03-06T10:59:28;2.50;;;1.87;;
4053;SDS011;2042;47.956;9.222;2024-03-06T11:01:55;1.80;;;1.70;;
4053;SDS011;2042;47.956;9.222;2024-03-06T11:04:22;1.83;;;1.70;;
4053;SDS011;2042;47.956;9.222;2024-03-06T11:06:50;2.33;;;1.63;;
4053;SDS011;2042;47.956;9.222;2024-03-06T11:09:16;1.87;;;1.10;;
4053;SDS011;2042;47.956;9.222;2024-03-06T11:11:47;1.70;;;1.40;;
4053;SDS011;2042;47.956;9.222;2024-03-06T11:14:13;2.80;;;1.37;;
4053;SDS011;2042;47.956;9.222;2024-03-06T11:19:31;2.03;;;1.57;;
4053;SDS011;2042;47.956;9.222;2024-03-06T11:22:17;3.40;;;1.93;;
4053;SDS011;2042;47.956;9.222;2024-03-06T11:24:43;1.63;;;1.53;;
4053;SDS011;2042;47.956;9.222;2024-03-06T11:27:08;1.60;;;1.40;;
4053;SDS011;2042;47.956;9.222;2024-03-06T11:32:56;0.60;;;0.40;;
4053;SDS011;2042;47.956;9.222;2024-03-06T11:35:23;0.60;;;0.40;;
4053;SDS011;2042;47.956;9.222;2024-03-06T11:37:49;0.60;;;0.40;;
4053;SDS011;2042;47.956;9.222;2024-03-06T11:40:22;0.60;;;0.43;;
4053;SDS011;2042;47.956;9.222;2024-03-06T11:42:49;0.60;;;0.40;;
4053;SDS011;2042;47.956;9.222;2024-03-06T11:45:15;0.60;;;0.40;;
4053;SDS011;2042;47.956;9.222;2024-03-06T11:47:58;0.60;;;0.40;;
4053;SDS011;2042;47.956;9.222;2024-03-06T11:50:25;0.60;;;0.50;;
4053;SDS011;2042;47.956;9.222;2024-03-06T11:52:53;0.60;;;0.40;;
4053;SDS011;2042;47.956;9.222;2024-03-06T11:55:20;0.60;;;0.40;;
4053;SDS011;2042;47.956;9.222;2024-03-06T11:57:47;0.60;;;0.43;;
4053;SDS011;2042;47.956;9.222;2024-03-06T12:00:13;0.60;;;0.50;;
4053;SDS011;2042;47.956;9.222;2024-03-06T12:02:39;0.60;;;0.40;;
4053;SDS011;2042;47.956;9.222;2024-03-06T12:05:05;0.60;;;0.40;;
4053;SDS011;2042;47.956;9.222;2024-03-06T12:07:31;0.60;;;0.40;;
4053;SDS011;2042;47.956;9.222;2024-03-06T12:09:59;0.60;;;0.43;;
4053;SDS011;2042;47.956;9.222;2024-03-06T12:12:25;0.60;;;0.40;;
4053;SDS011;2042;47.956;9.222;2024-03-06T12:14:59;0.60;;;0.53;;
4053;SDS011;2042;47.956;9.222;2024-03-06T12:17:29;0.60;;;0.43;;
4053;SDS011;2042;47.956;9.222;2024-03-06T12:19:55;0.60;;;0.40;;
4053;SDS011;2042;47.956;9.222;2024-03-06T12:22:24;0.60;;;0.40;;
4053;SDS011;2042;47.956;9.222;2024-03-06T12:25:00;0.60;;;0.40;;
4053;SDS011;2042;47.956;9.222;2024-03-06T12:27:25;0.60;;;0.43;;
4053;SDS011;2042;47.956;9.222;2024-03-06T12:29:52;0.60;;;0.40;;
4053;SDS011;2042;47.956;9.222;2024-03-06T12:32:18;0.60;;;0.40;;
4053;SDS011;2042;47.956;9.222;2024-03-06T12:34:44;0.60;;;0.40;;
4053;SDS011;2042;47.956;9.222;2024-03-06T12:37:10;0.60;;;0.40;;
4053;SDS011;2042;47.956;9.222;2024-03-06T12:39:36;0.60;;;0.40;;
4053;SDS011;2042;47.956;9.222;2024-03-06T12:42:02;0.60;;;0.40;;
4053;SDS011;2042;47.956;9.222;2024-03-06T12:44:27;0.60;;;0.40;;
4053;SDS011;2042;47.956;9.222;2024-03-06T12:46:53;0.60;;;0.50;;
4053;SDS011;2042;47.956;9.222;2024-03-06T12:49:19;0.60;;;0.40;;
4053;SDS011;2042;47.956;9.222;2024-03-06T12:51:45;0.60;;;0.40;;
4053;SDS011;2042;47.956;9.222;2024-03-06T12:54:10;0.60;;;0.50;;
4053;SDS011;2042;47.956;9.222;2024-03-06T12:56:36;0.60;;;0.50;;
4053;SDS011;2042;47.956;9.222;2024-03-06T12:59:02;0.60;;;0.50;;
4053;SDS011;2042;47.956;9.222;2024-03-06T13:01:27;0.60;;;0.40;;
4053;SDS011;2042;47.956;9.222;2024-03-06T13:03:53;0.60;;;0.50;;
4053;SDS011;2042;47.956;9.222;2024-03-06T13:06:18;0.60;;;0.50;;
4053;SDS011;2042;47.956;9.222;2024-03-06T13:08:44;0.60;;;0.50;;
4053;SDS011;2042;47.956;9.222;2024-03-06T13:11:10;0.60;;;0.40;;
4053;SDS011;2042;47.956;9.222;2024-03-06T13:13:36;0.60;;;0.40;;
4053;SDS011;2042;47.956;9.222;2024-03-06T13:16:02;0.60;;;0.40;;
4053;SDS011;2042;47.956;9.222;2024-03-06T13:18:28;0.60;;;0.50;;
4053;SDS011;2042;47.956;9.222;2024-03-06T13:20:54;0.60;;;0.40;;
4053;SDS011;2042;47.956;9.222;2024-03-06T13:23:20;0.60;;;0.40;;
4053;SDS011;2042;47.956;9.222;2024-03-06T13:25:47;0.60;;;0.40;;
4053;SDS011;2042;47.956;9.222;2024-03-06T13:28:13;0.60;;;0.40;;
4053;SDS011;2042;47.956;9.222;2024-03-06T13:30:38;0.60;;;0.40;;
4053;SDS011;2042;47.956;9.222;2024-03-06T13:33:04;0.60;;;0.40;;
4053;SDS011;2042;47.956;9.222;2024-03-06T13:35:30;0.60;;;0.50;;
4053;SDS011;2042;47.956;9.222;2024-03-06T13:37:56;0.60;;;0.50;;
4053;SDS011;2042;47.956;9.222;2024-03-06T13:40:22;0.60;;;0.40;;
4053;SDS011;2042;47.956;9.222;2024-03-06T13:42:48;0.60;;;0.40;;
4053;SDS011;2042;47.956;9.222;2024-03-06T13:45:13;0.60;;;0.40;;
4053;SDS011;2042;47.956;9.222;2024-03-06T13:47:43;0.60;;;0.40;;
4053;SDS011;2042;47.956;9.222;2024-03-06T13:50:10;0.60;;;0.40;;
4053;SDS011;2042;47.956;9.222;2024-03-06T13:52:36;0.60;;;0.40;;
4053;SDS011;2042;47.956;9.222;2024-03-06T13:55:02;0.60;;;0.40;;
4053;SDS011;2042;47.956;9.222;2024-03-06T13:57:30;0.60;;;0.50;;
4053;SDS011;2042;47.956;9.222;2024-03-06T13:59:59;0.60;;;0.40;;
4053;SDS011;2042;47.956;9.222;2024-03-06T14:02:30;0.60;;;0.40;;
4053;SDS011;2042;47.956;9.222;2024-03-06T14:04:55;0.60;;;0.40;;
4053;SDS011;2042;47.956;9.222;2024-03-06T14:07:21;0.60;;;0.40;;
4053;SDS011;2042;47.956;9.222;2024-03-06T14:09:48;0.60;;;0.47;;
4053;SDS011;2042;47.956;9.222;2024-03-06T14:12:15;0.60;;;0.50;;
4053;SDS011;2042;47.956;9.222;2024-03-06T14:14:40;0.60;;;0.40;;
4053;SDS011;2042;47.956;9.222;2024-03-06T14:17:06;0.60;;;0.40;;
4053;SDS011;2042;47.956;9.222;2024-03-06T14:19:31;0.60;;;0.40;;
4053;SDS011;2042;47.956;9.222;2024-03-06T14:21:57;0.60;;;0.40;;
4053;SDS011;2042;47.956;9.222;2024-03-06T14:24:23;0.60;;;0.40;;
4053;SDS011;2042;47.956;9.222;2024-03-06T14:26:49;0.60;;;0.40;;
4053;SDS011;2042;47.956;9.222;2024-03-06T14:29:15;0.60;;;0.40;;
4053;SDS011;2042;47.956;9.222;2024-03-06T14:31:41;0.60;;;0.40;;
4053;SDS011;2042;47.956;9.222;2024-03-06T14:34:06;0.60;;;0.40;;
4053;SDS011;2042;47.956;9.222;2024-03-06T14:36:32;0.60;;;0.40;;
4053;SDS011;2042;47.956;9.222;2024-03-06T14:38:59;0.60;;;0.40;;
4053;SDS011;2042;47.956;9.222;2024-03-06T14:41:25;0.60;;;0.40;;
4053;SDS011;2042;47.956;9.222;2024-03-06T14:43:51;0.60;;;0.40;;
4053;SDS011;2042;47.956;9.222;2024-03-06T14:46:16;0.60;;;0.40;;
4053;SDS011;2042;47.956;9.222;2024-03-06T14:48:43;0.60;;;0.50;;
4053;SDS011;2042;47.956;9.222;2024-03-06T14:51:09;0.60;;;0.50;;
4053;SDS011;2042;47.956;9.222;2024-03-06T14:53:35;0.60;;;0.40;;
4053;SDS011;2042;47.956;9.222;2024-03-06T14:56:01;0.57;;;0.40;;
4053;SDS011;2042;47.956;9.222;2024-03-06T14:58:27;0.60;;;0.40;;
4053;SDS011;2042;47.956;9.222;2024-03-06T15:00:53;0.60;;;0.43;;
4053;SDS011;2042;47.956;9.222;2024-03-06T15:03:19;0.60;;;0.40;;
4053;SDS011;2042;47.956;9.222;2024-03-06T15:05:44;0.60;;;0.40;;
4053;SDS011;2042;47.956;9.222;2024-03-06T15:08:11;0.60;;;0.40;;
4053;SDS011;2042;47.956;9.222;2024-03-06T15:10:37;0.60;;;0.40;;
4053;SDS011;2042;47.956;9.222;2024-03-06T15:13:03;0.60;;;0.40;;
4053;SDS011;2042;47.956;9.222;2024-03-06T15:15:30;0.60;;;0.40;;
4053;SDS011;2042;47.956;9.222;2024-03-06T15:17:56;0.60;;;0.50;;
4053;SDS011;2042;47.956;9.222;2024-03-06T15:20:24;0.60;;;0.50;;